Calamus, Iowa
Current Conditions -  °F | °C
As of 6:52 AM on Saturday 25 Oct 2014 (Local Time) from KDVN Reporting Station
Moderate Fog Moderate Fog  
Wind Chill: 52°   Ceiling: 200
Heat Index: 52°   Visibility: 0.25mi
Dew Point: 51°   Wind: 8mph
Humidity: 97%   Direction: 280°W
Pressure: 29.97"   Gusts: NA
Location:  41.83°N, 90.76°W
Report Text: KDVN 251152Z AUTO 28007KT 1/4SM FG VV002 11/11 A2997 RMK AO2 SLP148 T01110106 10133 20106 53008 TSNO
Loading
Personal Weather Stations






























Interactive Weather Map
Tropical Storm Tracking
New forecast layout! Learn more

10-Day Weather Forecast

Advertisements
Track Severe Weather on mobile